sensor_id;sensor_type;location;lat;lon;timestamp;pressure;altitude;pressure_sealevel;temperature;humidity
78509;BME280;67802;50.846;7.958;2023-04-25T00:01:20;97114.38;;;19.56;36.41
78509;BME280;67802;50.846;7.958;2023-04-25T00:03:46;97118.78;;;19.55;36.38
78509;BME280;67802;50.846;7.958;2023-04-25T00:06:12;97121.56;;;19.54;36.40
78509;BME280;67802;50.846;7.958;2023-04-25T00:08:37;97119.06;;;19.52;36.35
78509;BME280;67802;50.846;7.958;2023-04-25T00:11:03;97122.53;;;19.53;36.43
78509;BME280;67802;50.846;7.958;2023-04-25T00:13:28;97120.88;;;19.52;36.51
78509;BME280;67802;50.846;7.958;2023-04-25T00:15:53;97123.53;;;19.52;36.50
78509;BME280;67802;50.846;7.958;2023-04-25T00:18:19;97125.19;;;19.53;36.34
78509;BME280;67802;50.846;7.958;2023-04-25T00:20:45;97119.06;;;19.52;36.50
78509;BME280;67802;50.846;7.958;2023-04-25T00:23:17;97129.59;;;19.52;36.35
78509;BME280;67802;50.846;7.958;2023-04-25T00:25:47;97128.78;;;19.52;36.50
78509;BME280;67802;50.846;7.958;2023-04-25T00:28:12;97121.16;;;19.49;36.36
78509;BME280;67802;50.846;7.958;2023-04-25T00:30:39;97128.09;;;19.50;36.53
78509;BME280;67802;50.846;7.958;2023-04-25T00:33:05;97127.41;;;19.48;36.32
78509;BME280;67802;50.846;7.958;2023-04-25T00:35:30;97123.09;;;19.47;36.45
78509;BME280;67802;50.846;7.958;2023-04-25T00:37:56;97131.00;;;19.47;36.46
78509;BME280;67802;50.846;7.958;2023-04-25T00:40:21;97124.88;;;19.46;36.35
78509;BME280;67802;50.846;7.958;2023-04-25T00:42:47;97118.94;;;19.44;36.26
78509;BME280;67802;50.846;7.958;2023-04-25T00:45:13;97127.09;;;19.41;36.48
78509;BME280;67802;50.846;7.958;2023-04-25T00:47:42;97127.25;;;19.39;36.35
78509;BME280;67802;50.846;7.958;2023-04-25T00:50:08;97126.56;;;19.37;36.60
78509;BME280;67802;50.846;7.958;2023-04-25T00:52:35;97129.31;;;19.36;36.49
78509;BME280;67802;50.846;7.958;2023-04-25T00:55:00;97127.66;;;19.35;36.52
78509;BME280;67802;50.846;7.958;2023-04-25T00:57:26;97125.19;;;19.33;36.27
78509;BME280;67802;50.846;7.958;2023-04-25T00:59:52;97118.25;;;19.32;36.35
78509;BME280;67802;50.846;7.958;2023-04-25T01:02:19;97115.88;;;19.29;36.42
78509;BME280;67802;50.846;7.958;2023-04-25T01:04:46;97126.44;;;19.29;36.34
78509;BME280;67802;50.846;7.958;2023-04-25T01:07:12;97120.34;;;19.28;36.35
78509;BME280;67802;50.846;7.958;2023-04-25T01:09:38;97124.06;;;19.26;36.29
78509;BME280;67802;50.846;7.958;2023-04-25T01:12:03;97129.34;;;19.26;36.35
78509;BME280;67802;50.846;7.958;2023-04-25T01:14:29;97131.28;;;19.24;36.20
78509;BME280;67802;50.846;7.958;2023-04-25T01:16:55;97129.59;;;19.23;36.19
78509;BME280;67802;50.846;7.958;2023-04-25T01:19:20;97133.22;;;19.22;36.39
78509;BME280;67802;50.846;7.958;2023-04-25T01:21:46;97127.13;;;19.21;36.30
78509;BME280;67802;50.846;7.958;2023-04-25T01:24:12;97124.63;;;19.20;36.39
78509;BME280;67802;50.846;7.958;2023-04-25T01:26:38;97125.59;;;19.19;36.35
78509;BME280;67802;50.846;7.958;2023-04-25T01:29:06;97128.22;;;19.19;36.22
78509;BME280;67802;50.846;7.958;2023-04-25T01:31:32;97125.75;;;19.17;36.15
78509;BME280;67802;50.846;7.958;2023-04-25T01:34:00;97131.13;;;19.16;36.28
78509;BME280;67802;50.846;7.958;2023-04-25T01:36:25;97132.09;;;19.15;36.23
78509;BME280;67802;50.846;7.958;2023-04-25T01:38:52;97133.06;;;19.13;36.25
78509;BME280;67802;50.846;7.958;2023-04-25T01:41:17;97135.69;;;19.13;36.22
78509;BME280;67802;50.846;7.958;2023-04-25T01:43:43;97140.97;;;19.13;36.15
78509;BME280;67802;50.846;7.958;2023-04-25T01:46:11;97144.56;;;19.12;36.21
78509;BME280;67802;50.846;7.958;2023-04-25T01:48:37;97143.75;;;19.12;36.11
78509;BME280;67802;50.846;7.958;2023-04-25T01:51:02;97145.53;;;19.11;36.01
78509;BME280;67802;50.846;7.958;2023-04-25T01:53:28;97146.38;;;19.12;36.18
78509;BME280;67802;50.846;7.958;2023-04-25T01:55:53;97143.88;;;19.10;36.10
78509;BME280;67802;50.846;7.958;2023-04-25T01:58:18;97148.16;;;19.11;36.08
78509;BME280;67802;50.846;7.958;2023-04-25T02:00:44;97156.06;;;19.11;36.19
78509;BME280;67802;50.846;7.958;2023-04-25T02:03:09;97158.69;;;19.11;36.16
78509;BME280;67802;50.846;7.958;2023-04-25T02:05:36;97163.13;;;19.11;36.03
78509;BME280;67802;50.846;7.958;2023-04-25T02:08:02;97159.66;;;19.10;36.18
78509;BME280;67802;50.846;7.958;2023-04-25T02:10:28;97167.56;;;19.10;35.97
78509;BME280;67802;50.846;7.958;2023-04-25T02:12:53;97162.28;;;19.10;35.97
78509;BME280;67802;50.846;7.958;2023-04-25T02:15:18;97164.91;;;19.10;36.01
78509;BME280;67802;50.846;7.958;2023-04-25T02:17:44;97162.28;;;19.10;36.04
78509;BME280;67802;50.846;7.958;2023-04-25T02:20:10;97162.28;;;19.10;36.12
78509;BME280;67802;50.846;7.958;2023-04-25T02:22:35;97157.03;;;19.10;36.05
78509;BME280;67802;50.846;7.958;2023-04-25T02:25:02;97157.03;;;19.10;35.95
78509;BME280;67802;50.846;7.958;2023-04-25T02:27:30;97157.03;;;19.10;35.83
78509;BME280;67802;50.846;7.958;2023-04-25T02:29:55;97155.34;;;19.09;35.89
78509;BME280;67802;50.846;7.958;2023-04-25T02:32:20;97156.22;;;19.10;35.94
78509;BME280;67802;50.846;7.958;2023-04-25T02:34:46;97155.34;;;19.09;36.04
78509;BME280;67802;50.846;7.958;2023-04-25T02:37:11;97158.00;;;19.09;35.81
78509;BME280;67802;50.846;7.958;2023-04-25T02:39:36;97157.03;;;19.10;35.85
78509;BME280;67802;50.846;7.958;2023-04-25T02:42:02;97150.25;;;19.08;36.00
78509;BME280;67802;50.846;7.958;2023-04-25T02:44:27;97143.16;;;19.08;35.96
78509;BME280;67802;50.846;7.958;2023-04-25T02:46:53;97143.16;;;19.08;35.89
78509;BME280;67802;50.846;7.958;2023-04-25T02:49:18;97144.16;;;19.07;35.97
78509;BME280;67802;50.846;7.958;2023-04-25T02:51:43;97146.81;;;19.07;35.91
78509;BME280;67802;50.846;7.958;2023-04-25T02:54:09;97142.50;;;19.06;35.89
78509;BME280;67802;50.846;7.958;2023-04-25T02:56:34;97145.13;;;19.06;35.87
78509;BME280;67802;50.846;7.958;2023-04-25T02:58:59;97145.13;;;19.06;36.04
78509;BME280;67802;50.846;7.958;2023-04-25T03:01:24;97148.59;;;19.07;36.10
78509;BME280;67802;50.846;7.958;2023-04-25T03:03:50;97147.06;;;19.04;35.84
78509;BME280;67802;50.846;7.958;2023-04-25T03:06:15;97149.69;;;19.04;36.00
78509;BME280;67802;50.846;7.958;2023-04-25T03:08:41;97148.84;;;19.04;35.96
78509;BME280;67802;50.846;7.958;2023-04-25T03:11:06;97151.47;;;19.04;35.84
78509;BME280;67802;50.846;7.958;2023-04-25T03:13:31;97148.84;;;19.04;35.86
78509;BME280;67802;50.846;7.958;2023-04-25T03:15:57;97155.09;;;19.03;35.87
78509;BME280;67802;50.846;7.958;2023-04-25T03:18:22;97149.00;;;19.02;35.83
78509;BME280;67802;50.846;7.958;2023-04-25T03:20:47;97147.34;;;19.01;35.80
78509;BME280;67802;50.846;7.958;2023-04-25T03:23:12;97145.69;;;19.00;35.69
78509;BME280;67802;50.846;7.958;2023-04-25T03:25:38;97138.75;;;18.99;35.89
78509;BME280;67802;50.846;7.958;2023-04-25T03:28:03;97144.00;;;18.99;35.87
78509;BME280;67802;50.846;7.958;2023-04-25T03:30:28;97144.00;;;18.99;35.78
78509;BME280;67802;50.846;7.958;2023-04-25T03:32:54;97142.34;;;18.98;35.84
78509;BME280;67802;50.846;7.958;2023-04-25T03:35:19;97138.06;;;18.97;35.84
78509;BME280;67802;50.846;7.958;2023-04-25T03:37:45;97135.41;;;18.97;35.85
78509;BME280;67802;50.846;7.958;2023-04-25T03:40:11;97140.69;;;18.97;35.84
78509;BME280;67802;50.846;7.958;2023-04-25T03:42:36;97132.88;;;18.95;36.19
78509;BME280;67802;50.846;7.958;2023-04-25T03:45:02;97139.97;;;18.95;36.03
78509;BME280;67802;50.846;7.958;2023-04-25T03:47:27;97137.31;;;18.95;35.86
78509;BME280;67802;50.846;7.958;2023-04-25T03:49:52;97134.00;;;18.93;35.73
78509;BME280;67802;50.846;7.958;2023-04-25T03:52:18;97135.66;;;18.94;35.68
78509;BME280;67802;50.846;7.958;2023-04-25T03:54:43;97143.66;;;18.92;35.83
78509;BME280;67802;50.846;7.958;2023-04-25T03:57:08;97142.00;;;18.91;35.76
78509;BME280;67802;50.846;7.958;2023-04-25T03:59:34;97142.00;;;18.91;35.83
78509;BME280;67802;50.846;7.958;2023-04-25T04:01:59;97134.25;;;18.90;35.83
78509;BME280;67802;50.846;7.958;2023-04-25T04:04:24;97137.88;;;18.89;35.76
78509;BME280;67802;50.846;7.958;2023-04-25T04:06:49;97147.53;;;18.88;35.69
78509;BME280;67802;50.846;7.958;2023-04-25T04:09:15;97132.88;;;18.86;35.93
78509;BME280;67802;50.846;7.958;2023-04-25T04:11:41;97142.53;;;18.85;35.92
78509;BME280;67802;50.846;7.958;2023-04-25T04:14:06;97147.00;;;18.84;35.77
78509;BME280;67802;50.846;7.958;2023-04-25T04:16:32;97142.69;;;18.83;36.03
78509;BME280;67802;50.846;7.958;2023-04-25T04:18:57;97147.25;;;18.81;35.97
78509;BME280;67802;50.846;7.958;2023-04-25T04:21:22;97145.59;;;18.80;35.86
78509;BME280;67802;50.846;7.958;2023-04-25T04:23:48;97144.91;;;18.78;35.90
78509;BME280;67802;50.846;7.958;2023-04-25T04:26:13;97140.59;;;18.77;35.91
78509;BME280;67802;50.846;7.958;2023-04-25T04:28:41;97138.13;;;18.76;35.74
78509;BME280;67802;50.846;7.958;2023-04-25T04:31:07;97146.97;;;18.75;35.85
78509;BME280;67802;50.846;7.958;2023-04-25T04:33:32;97144.47;;;18.73;35.82
78509;BME280;67802;50.846;7.958;2023-04-25T04:35:58;97152.50;;;18.72;35.83
78509;BME280;67802;50.846;7.958;2023-04-25T04:38:24;97146.41;;;18.71;35.89
78509;BME280;67802;50.846;7.958;2023-04-25T04:40:50;97148.34;;;18.69;35.73
78509;BME280;67802;50.846;7.958;2023-04-25T04:43:15;97149.28;;;18.68;35.64
78509;BME280;67802;50.846;7.958;2023-04-25T04:45:42;97150.25;;;18.67;35.73
78509;BME280;67802;50.846;7.958;2023-04-25T04:48:08;97149.56;;;18.65;35.72
78509;BME280;67802;50.846;7.958;2023-04-25T04:50:33;97155.78;;;18.64;35.82
78509;BME280;67802;50.846;7.958;2023-04-25T04:53:01;97156.75;;;18.63;35.77
78509;BME280;67802;50.846;7.958;2023-04-25T04:55:26;97157.72;;;18.62;35.93
78509;BME280;67802;50.846;7.958;2023-04-25T04:57:52;97162.97;;;18.62;35.86
78509;BME280;67802;50.846;7.958;2023-04-25T05:00:17;97159.66;;;18.60;35.86
78509;BME280;67802;50.846;7.958;2023-04-25T05:02:43;97164.09;;;18.59;35.88
78509;BME280;67802;50.846;7.958;2023-04-25T05:05:08;97172.94;;;18.58;35.72
78509;BME280;67802;50.846;7.958;2023-04-25T05:07:34;97175.69;;;18.57;35.84
78509;BME280;67802;50.846;7.958;2023-04-25T05:09:59;97174.88;;;18.56;35.84
78509;BME280;67802;50.846;7.958;2023-04-25T05:12:24;97181.91;;;18.56;35.99
78509;BME280;67802;50.846;7.958;2023-04-25T05:14:50;97182.06;;;18.54;35.88
78509;BME280;67802;50.846;7.958;2023-04-25T05:17:15;97191.78;;;18.53;35.87
78509;BME280;67802;50.846;7.958;2023-04-25T05:19:40;97192.75;;;18.52;35.93
78509;BME280;67802;50.846;7.958;2023-04-25T05:22:06;97195.38;;;18.52;35.88
78509;BME280;67802;50.846;7.958;2023-04-25T05:24:31;97199.94;;;18.50;35.92
78509;BME280;67802;50.846;7.958;2023-04-25T05:26:56;97206.97;;;18.50;36.00
78509;BME280;67802;50.846;7.958;2023-04-25T05:29:22;97208.78;;;18.49;35.99
78509;BME280;67802;50.846;7.958;2023-04-25T05:31:47;97208.06;;;18.47;35.81
78509;BME280;67802;50.846;7.958;2023-04-25T05:34:13;97216.78;;;18.48;35.89
78509;BME280;67802;50.846;7.958;2023-04-25T05:36:38;97223.84;;;18.47;36.12
78509;BME280;67802;50.846;7.958;2023-04-25T05:39:03;97216.94;;;18.46;36.04
78509;BME280;67802;50.846;7.958;2023-04-25T05:41:29;97216.94;;;18.46;36.04
78509;BME280;67802;50.846;7.958;2023-04-25T05:43:55;97216.94;;;18.46;35.85
78509;BME280;67802;50.846;7.958;2023-04-25T05:46:20;97222.19;;;18.46;35.98
78509;BME280;67802;50.846;7.958;2023-04-25T05:48:45;97230.06;;;18.46;35.76
78509;BME280;67802;50.846;7.958;2023-04-25T05:51:10;97236.31;;;18.45;36.00
78509;BME280;67802;50.846;7.958;2023-04-25T05:53:36;97235.44;;;18.45;35.90
78509;BME280;67802;50.846;7.958;2023-04-25T05:56:01;97233.78;;;18.44;35.92
78509;BME280;67802;50.846;7.958;2023-04-25T05:58:26;97236.31;;;18.45;35.97
78509;BME280;67802;50.846;7.958;2023-04-25T06:00:52;97244.19;;;18.45;35.90
78509;BME280;67802;50.846;7.958;2023-04-25T06:03:17;97240.72;;;18.45;36.13
78509;BME280;67802;50.846;7.958;2023-04-25T06:05:43;97246.81;;;18.45;35.95
78509;BME280;67802;50.846;7.958;2023-04-25T06:08:09;97253.03;;;18.44;35.91
78509;BME280;67802;50.846;7.958;2023-04-25T06:10:35;97258.16;;;18.46;36.11
78509;BME280;67802;50.846;7.958;2023-04-25T06:13:00;97257.34;;;18.45;35.89
78509;BME280;67802;50.846;7.958;2023-04-25T06:15:26;97257.34;;;18.45;36.02
78509;BME280;67802;50.846;7.958;2023-04-25T06:17:51;97262.59;;;18.45;36.06
78509;BME280;67802;50.846;7.958;2023-04-25T06:20:16;97259.00;;;18.46;35.92
78509;BME280;67802;50.846;7.958;2023-04-25T06:22:42;97263.31;;;18.47;35.90
78509;BME280;67802;50.846;7.958;2023-04-25T06:25:07;97268.56;;;18.47;35.92
78509;BME280;67802;50.846;7.958;2023-04-25T06:27:33;97272.00;;;18.48;35.70
78509;BME280;67802;50.846;7.958;2023-04-25T06:29:58;97267.59;;;18.48;35.93
78509;BME280;67802;50.846;7.958;2023-04-25T06:32:24;97269.28;;;18.49;35.73
78509;BME280;67802;50.846;7.958;2023-04-25T06:34:50;97264.00;;;18.49;36.00
78509;BME280;67802;50.846;7.958;2023-04-25T06:37:15;97260.41;;;18.50;35.89
78509;BME280;67802;50.846;7.958;2023-04-25T06:39:41;97265.53;;;18.52;35.78
78509;BME280;67802;50.846;7.958;2023-04-25T06:42:06;97272.59;;;18.51;35.91
78509;BME280;67802;50.846;7.958;2023-04-25T06:44:31;97274.28;;;18.52;35.75
78509;BME280;67802;50.846;7.958;2023-04-25T06:46:56;97277.72;;;18.53;35.70
78509;BME280;67802;50.846;7.958;2023-04-25T06:49:22;97279.53;;;18.52;35.85
78509;BME280;67802;50.846;7.958;2023-04-25T06:51:47;97283.81;;;18.53;35.88
78509;BME280;67802;50.846;7.958;2023-04-25T06:54:12;97281.19;;;18.53;35.93
78509;BME280;67802;50.846;7.958;2023-04-25T06:56:38;97291.72;;;18.53;35.81
78509;BME280;67802;50.846;7.958;2023-04-25T06:59:03;97283.69;;;18.55;35.71
78509;BME280;67802;50.846;7.958;2023-04-25T07:01:28;97283.69;;;18.55;35.88
78509;BME280;67802;50.846;7.958;2023-04-25T07:03:54;97288.94;;;18.55;36.20
78509;BME280;67802;50.846;7.958;2023-04-25T07:06:19;97284.50;;;18.56;35.93
78509;BME280;67802;50.846;7.958;2023-04-25T07:08:45;97287.13;;;18.56;35.80
78509;BME280;67802;50.846;7.958;2023-04-25T07:11:11;97285.50;;;18.54;35.82
78509;BME280;67802;50.846;7.958;2023-04-25T07:13:36;97295.03;;;18.56;35.74
78509;BME280;67802;50.846;7.958;2023-04-25T07:16:01;97289.75;;;18.56;35.89
78509;BME280;67802;50.846;7.958;2023-04-25T07:18:26;97289.75;;;18.56;35.80
78509;BME280;67802;50.846;7.958;2023-04-25T07:20:52;97307.22;;;18.57;35.88
78509;BME280;67802;50.846;7.958;2023-04-25T07:23:17;97319.69;;;18.54;35.61
78509;BME280;67802;50.846;7.958;2023-04-25T07:25:42;97309.16;;;18.54;35.87
78509;BME280;67802;50.846;7.958;2023-04-25T07:28:08;97313.56;;;18.54;35.53
78509;BME280;67802;50.846;7.958;2023-04-25T07:30:33;97311.09;;;18.52;35.43
78509;BME280;67802;50.846;7.958;2023-04-25T07:32:59;97313.00;;;18.50;35.50
78509;BME280;67802;50.846;7.958;2023-04-25T07:35:25;97309.44;;;18.51;35.39
78509;BME280;67802;50.846;7.958;2023-04-25T07:37:50;97321.88;;;18.49;35.51
78509;BME280;67802;50.846;7.958;2023-04-25T07:40:16;97321.03;;;18.49;35.56
78509;BME280;67802;50.846;7.958;2023-04-25T07:42:41;97321.03;;;18.49;35.24
78509;BME280;67802;50.846;7.958;2023-04-25T07:45:07;97321.03;;;18.49;35.44
78509;BME280;67802;50.846;7.958;2023-04-25T07:47:32;97327.13;;;18.49;35.58
78509;BME280;67802;50.846;7.958;2023-04-25T07:49:57;97328.09;;;18.48;35.58
78509;BME280;67802;50.846;7.958;2023-04-25T07:52:23;97335.97;;;18.48;35.50
78509;BME280;67802;50.846;7.958;2023-04-25T07:54:48;97329.88;;;18.48;35.42
78509;BME280;67802;50.846;7.958;2023-04-25T07:57:13;97329.06;;;18.47;35.35
78509;BME280;67802;50.846;7.958;2023-04-25T07:59:39;97337.91;;;18.46;35.37
78509;BME280;67802;50.846;7.958;2023-04-25T08:02:05;97337.91;;;18.46;35.28
78509;BME280;67802;50.846;7.958;2023-04-25T08:04:30;97345.78;;;18.46;35.31
78509;BME280;67802;50.846;7.958;2023-04-25T08:06:55;97348.41;;;18.46;35.65
78509;BME280;67802;50.846;7.958;2023-04-25T08:09:21;97341.50;;;18.45;35.40
78509;BME280;67802;50.846;7.958;2023-04-25T08:11:47;97348.69;;;18.43;35.29
78509;BME280;67802;50.846;7.958;2023-04-25T08:14:13;97339.81;;;18.44;35.27
78509;BME280;67802;50.846;7.958;2023-04-25T08:16:38;97344.25;;;18.44;35.31
78509;BME280;67802;50.846;7.958;2023-04-25T08:19:04;97353.09;;;18.43;35.25
78509;BME280;67802;50.846;7.958;2023-04-25T08:21:30;97354.91;;;18.42;35.15
78509;BME280;67802;50.846;7.958;2023-04-25T08:23:56;97359.19;;;18.43;35.25
78509;BME280;67802;50.846;7.958;2023-04-25T08:26:23;97362.78;;;18.42;35.30
78509;BME280;67802;50.846;7.958;2023-04-25T08:28:48;97367.19;;;18.42;35.22
78509;BME280;67802;50.846;7.958;2023-04-25T08:31:14;97376.03;;;18.41;34.94
78509;BME280;67802;50.846;7.958;2023-04-25T08:33:40;97380.50;;;18.40;35.10
78509;BME280;67802;50.846;7.958;2023-04-25T08:36:05;97371.63;;;18.41;35.14
78509;BME280;67802;50.846;7.958;2023-04-25T08:38:30;97388.13;;;18.43;34.97
78509;BME280;67802;50.846;7.958;2023-04-25T08:40:56;97380.94;;;18.45;34.83
78509;BME280;67802;50.846;7.958;2023-04-25T08:43:23;97385.25;;;18.46;34.84
78509;BME280;67802;50.846;7.958;2023-04-25T08:45:52;97389.66;;;18.46;34.63
78509;BME280;67802;50.846;7.958;2023-04-25T08:48:18;97392.44;;;18.44;34.59
78509;BME280;67802;50.846;7.958;2023-04-25T08:50:51;97396.84;;;18.44;34.49
78509;BME280;67802;50.846;7.958;2023-04-25T08:53:25;97399.59;;;18.42;34.57
78509;BME280;67802;50.846;7.958;2023-04-25T08:55:52;97398.75;;;18.42;34.61
78509;BME280;67802;50.846;7.958;2023-04-25T08:58:18;97407.59;;;18.41;34.65
78509;BME280;67802;50.846;7.958;2023-04-25T09:00:46;97408.44;;;18.41;34.74
78509;BME280;67802;50.846;7.958;2023-04-25T09:03:12;97409.16;;;18.43;34.97
78509;BME280;67802;50.846;7.958;2023-04-25T09:05:39;97407.09;;;18.47;34.70
78509;BME280;67802;50.846;7.958;2023-04-25T09:08:05;97408.53;;;18.51;34.83
78509;BME280;67802;50.846;7.958;2023-04-25T09:10:31;97419.63;;;18.54;35.08
78509;BME280;67802;50.846;7.958;2023-04-25T09:15:32;97419.31;;;18.69;35.23
78509;BME280;67802;50.846;7.958;2023-04-25T09:17:59;97412.56;;;18.76;35.25
78509;BME280;67802;50.846;7.958;2023-04-25T09:20:24;97415.66;;;18.81;35.09
78509;BME280;67802;50.846;7.958;2023-04-25T09:23:01;97417.19;;;18.84;35.38
78509;BME280;67802;50.846;7.958;2023-04-25T09:25:34;97427.59;;;18.86;35.21
78509;BME280;67802;50.846;7.958;2023-04-25T09:28:03;97430.22;;;18.86;35.15
78509;BME280;67802;50.846;7.958;2023-04-25T09:30:30;97437.28;;;18.85;35.34
78509;BME280;67802;50.846;7.958;2023-04-25T09:32:57;97441.72;;;18.84;35.31
78509;BME280;67802;50.846;7.958;2023-04-25T09:35:28;97435.75;;;18.82;35.55
78509;BME280;67802;50.846;7.958;2023-04-25T09:37:53;97433.13;;;18.82;35.48
78509;BME280;67802;50.846;7.958;2023-04-25T09:40:19;97449.88;;;18.81;35.57
78509;BME280;67802;50.846;7.958;2023-04-25T09:42:44;97455.13;;;18.81;35.30
78509;BME280;67802;50.846;7.958;2023-04-25T09:45:12;97452.50;;;18.81;35.54
78509;BME280;67802;50.846;7.958;2023-04-25T09:47:38;97453.31;;;18.82;35.33
78509;BME280;67802;50.846;7.958;2023-04-25T09:50:13;97459.44;;;18.82;35.58
78509;BME280;67802;50.846;7.958;2023-04-25T09:52:40;97452.25;;;18.84;35.47
78509;BME280;67802;50.846;7.958;2023-04-25T09:55:05;97466.38;;;18.83;35.65
78509;BME280;67802;50.846;7.958;2023-04-25T09:57:31;97461.91;;;18.84;35.35
78509;BME280;67802;50.846;7.958;2023-04-25T09:59:57;97469.72;;;18.86;35.67
78509;BME280;67802;50.846;7.958;2023-04-25T10:02:26;97470.41;;;18.88;35.58
78509;BME280;67802;50.846;7.958;2023-04-25T10:04:53;97483.81;;;18.84;35.37
78509;BME280;67802;50.846;7.958;2023-04-25T10:07:22;97476.91;;;18.83;35.37
78509;BME280;67802;50.846;7.958;2023-04-25T10:09:54;97476.91;;;18.83;35.24
78509;BME280;67802;50.846;7.958;2023-04-25T10:12:22;97480.50;;;18.82;35.35
78509;BME280;67802;50.846;7.958;2023-04-25T10:14:48;97478.00;;;18.81;35.01
78509;BME280;67802;50.846;7.958;2023-04-25T10:17:13;97486.00;;;18.79;34.82
78509;BME280;67802;50.846;7.958;2023-04-25T10:19:39;97491.25;;;18.79;35.16
78509;BME280;67802;50.846;7.958;2023-04-25T10:22:08;97491.97;;;18.81;34.91
78509;BME280;67802;50.846;7.958;2023-04-25T10:24:37;97491.97;;;18.81;34.91
78509;BME280;67802;50.846;7.958;2023-04-25T10:27:04;97490.06;;;18.83;34.90
78509;BME280;67802;50.846;7.958;2023-04-25T10:29:30;97488.94;;;18.86;34.74
78509;BME280;67802;50.846;7.958;2023-04-25T10:31:56;97488.84;;;18.88;34.68
78509;BME280;67802;50.846;7.958;2023-04-25T10:34:43;97488.59;;;18.91;34.73
78509;BME280;67802;50.846;7.958;2023-04-25T10:37:12;97489.16;;;18.94;34.66
78509;BME280;67802;50.846;7.958;2023-04-25T10:39:39;97486.44;;;18.96;34.44
78509;BME280;67802;50.846;7.958;2023-04-25T10:42:05;97480.06;;;18.98;34.53
78509;BME280;67802;50.846;7.958;2023-04-25T10:44:33;97487.84;;;19.00;34.33
78509;BME280;67802;50.846;7.958;2023-04-25T10:46:59;97490.34;;;19.02;34.35
78509;BME280;67802;50.846;7.958;2023-04-25T10:54:48;97486.75;;;19.03;34.24
78509;BME280;67802;50.846;7.958;2023-04-25T11:00:11;97492.31;;;19.09;34.25
78509;BME280;67802;50.846;7.958;2023-04-25T11:02:40;97486.81;;;19.12;34.32
78509;BME280;67802;50.846;7.958;2023-04-25T11:05:08;97494.44;;;19.16;34.27
78509;BME280;67802;50.846;7.958;2023-04-25T11:07:38;97499.59;;;19.17;34.36
78509;BME280;67802;50.846;7.958;2023-04-25T11:10:04;97506.53;;;19.18;34.34
78509;BME280;67802;50.846;7.958;2023-04-25T11:12:31;97502.09;;;19.19;34.41
78509;BME280;67802;50.846;7.958;2023-04-25T11:15:04;97501.28;;;19.18;34.33
78509;BME280;67802;50.846;7.958;2023-04-25T11:17:30;97517.06;;;19.18;34.37
78509;BME280;67802;50.846;7.958;2023-04-25T11:19:56;97517.06;;;19.18;34.42
78509;BME280;67802;50.846;7.958;2023-04-25T11:22:22;97506.53;;;19.18;34.32
78509;BME280;67802;50.846;7.958;2023-04-25T11:24:47;97514.56;;;19.17;34.22
78509;BME280;67802;50.846;7.958;2023-04-25T11:27:13;97516.22;;;19.18;34.65
78509;BME280;67802;50.846;7.958;2023-04-25T11:29:38;97507.34;;;19.19;34.49
78509;BME280;67802;50.846;7.958;2023-04-25T11:32:04;97512.38;;;19.22;34.18
78509;BME280;67802;50.846;7.958;2023-04-25T11:34:31;97514.03;;;19.23;34.23
78509;BME280;67802;50.846;7.958;2023-04-25T11:36:56;97510.44;;;19.24;34.15
78509;BME280;67802;50.846;7.958;2023-04-25T11:39:23;97506.84;;;19.25;34.25
78509;BME280;67802;50.846;7.958;2023-04-25T11:41:49;97506.84;;;19.25;34.23
78509;BME280;67802;50.846;7.958;2023-04-25T11:44:16;97506.84;;;19.25;34.05
78509;BME280;67802;50.846;7.958;2023-04-25T11:46:42;97508.78;;;19.23;34.07
78509;BME280;67802;50.846;7.958;2023-04-25T11:49:07;97518.50;;;19.22;33.93
78509;BME280;67802;50.846;7.958;2023-04-25T11:51:39;97509.03;;;19.20;33.90
78509;BME280;67802;50.846;7.958;2023-04-25T11:54:05;97518.84;;;19.18;34.01
78509;BME280;67802;50.846;7.958;2023-04-25T11:56:31;97522.59;;;19.15;33.87
78509;BME280;67802;50.846;7.958;2023-04-25T11:59:04;97517.59;;;19.12;34.00
78509;BME280;67802;50.846;7.958;2023-04-25T12:01:36;97520.22;;;19.12;33.69
78509;BME280;67802;50.846;7.958;2023-04-25T12:04:16;97528.94;;;19.12;33.88
78509;BME280;67802;50.846;7.958;2023-04-25T12:06:43;97516.72;;;19.11;33.79
78509;BME280;67802;50.846;7.958;2023-04-25T12:09:11;97518.41;;;19.12;33.67
78509;BME280;67802;50.846;7.958;2023-04-25T12:11:45;97516.47;;;19.15;33.69
78509;BME280;67802;50.846;7.958;2023-04-25T12:14:11;97518.41;;;19.12;33.55
78509;BME280;67802;50.846;7.958;2023-04-25T12:16:45;97522.84;;;19.12;33.51
78509;BME280;67802;50.846;7.958;2023-04-25T12:19:14;97528.94;;;19.12;33.59
78509;BME280;67802;50.846;7.958;2023-04-25T12:21:40;97535.03;;;19.13;33.56
78509;BME280;67802;50.846;7.958;2023-04-25T12:24:24;97528.94;;;19.12;33.62
78509;BME280;67802;50.846;7.958;2023-04-25T12:26:58;97525.34;;;19.13;33.42
78509;BME280;67802;50.846;7.958;2023-04-25T12:29:26;97522.69;;;19.13;33.49
78509;BME280;67802;50.846;7.958;2023-04-25T12:31:52;97521.75;;;19.15;33.37
78509;BME280;67802;50.846;7.958;2023-04-25T12:34:19;97521.75;;;19.15;33.34
78509;BME280;67802;50.846;7.958;2023-04-25T12:36:44;97517.31;;;19.15;33.33
78509;BME280;67802;50.846;7.958;2023-04-25T12:39:16;97527.97;;;19.13;33.29
78509;BME280;67802;50.846;7.958;2023-04-25T12:41:43;97540.31;;;19.13;33.43
78509;BME280;67802;50.846;7.958;2023-04-25T12:44:09;97541.38;;;19.10;33.20
78509;BME280;67802;50.846;7.958;2023-04-25T12:46:36;97549.44;;;19.09;33.23
78509;BME280;67802;50.846;7.958;2023-04-25T12:49:01;97546.94;;;19.07;33.22
78509;BME280;67802;50.846;7.958;2023-04-25T12:51:28;97550.53;;;19.06;33.35
78509;BME280;67802;50.846;7.958;2023-04-25T12:53:53;97547.19;;;19.04;33.00
78509;BME280;67802;50.846;7.958;2023-04-25T12:56:19;97544.66;;;19.03;33.09
78509;BME280;67802;50.846;7.958;2023-04-25T12:58:44;97549.09;;;19.02;33.18
78509;BME280;67802;50.846;7.958;2023-04-25T13:01:10;97552.69;;;19.01;32.95
78509;BME280;67802;50.846;7.958;2023-04-25T13:03:37;97550.06;;;19.01;33.08
78509;BME280;67802;50.846;7.958;2023-04-25T13:06:02;97541.31;;;19.01;33.02